Colonial Beach, Virginia
Current Conditions -  °F | °C
As of 6:13 PM on Thursday 20 Nov 2014 (Local Time) from K2W6 Reporting Station
Clear Clear  
Wind Chill: 43°   Ceiling: Unl
Heat Index: 43°   Visibility: 10mi
Dew Point: 28°   Wind: 3mph
Humidity: 57%   Direction: 210°SSW
Pressure: 29.96"   Gusts: NA
Location:  38.25°N, 76.96°W
Report Text: K2W6 202313Z AUTO 21003KT 10SM CLR 06/M02 A2996 RMK AO1
Loading
Personal Weather Stations






























Interactive Weather Map New forecast layout! Learn more

10-Day Weather Forecast

Advertisements
Track Severe Weather on mobile